createdAt,value
2022-12-06T00:01:35.008Z,1.00
2022-12-06T00:04:07.023Z,1.00
2022-12-06T00:06:48.419Z,1.00
2022-12-06T00:09:25.352Z,1.00
2022-12-06T00:11:53.976Z,1.00
2022-12-06T00:14:23.132Z,1.00
2022-12-06T00:16:52.054Z,1.00
2022-12-06T00:19:23.004Z,1.00
2022-12-06T00:21:51.985Z,1.00
2022-12-06T00:24:22.882Z,1.10
2022-12-06T00:26:52.461Z,1.00
2022-12-06T00:29:23.672Z,1.00
2022-12-06T00:31:52.430Z,1.10
2022-12-06T00:34:21.194Z,1.00
2022-12-06T00:36:49.704Z,1.10
2022-12-06T00:39:19.087Z,1.10
2022-12-06T00:41:47.668Z,1.10
2022-12-06T00:44:16.390Z,1.10
2022-12-06T00:46:44.841Z,1.10
2022-12-06T00:49:13.341Z,1.10
2022-12-06T00:51:42.465Z,1.10
2022-12-06T00:54:14.383Z,1.10
2022-12-06T00:56:43.121Z,1.10
2022-12-06T00:59:12.373Z,1.10
2022-12-06T01:01:42.436Z,1.10
2022-12-06T01:04:10.967Z,1.10
2022-12-06T01:06:39.556Z,1.10
2022-12-06T01:09:11.443Z,1.10
2022-12-06T01:11:40.528Z,1.10
2022-12-06T01:14:09.089Z,1.10
2022-12-06T01:16:37.769Z,1.10
2022-12-06T01:19:07.390Z,1.10
2022-12-06T01:21:36.130Z,1.10
2022-12-06T01:24:04.908Z,1.10
2022-12-06T01:26:35.200Z,1.10
2022-12-06T01:29:04.203Z,1.20
2022-12-06T01:31:38.329Z,1.20
2022-12-06T01:34:03.121Z,1.10
2022-12-06T01:36:31.627Z,1.20
2022-12-06T01:39:02.262Z,1.20
2022-12-06T01:41:30.763Z,1.20
2022-12-06T01:43:59.278Z,1.10
2022-12-06T01:46:43.091Z,1.20
2022-12-06T01:49:14.756Z,1.20
2022-12-06T01:51:46.291Z,1.20
2022-12-06T01:54:17.413Z,1.20
2022-12-06T01:56:46.964Z,1.20
2022-12-06T01:59:16.340Z,1.20
2022-12-06T02:01:46.578Z,1.20
2022-12-06T02:04:17.795Z,1.10
2022-12-06T02:06:47.998Z,1.20
2022-12-06T02:09:17.671Z,1.20
2022-12-06T02:11:47.260Z,1.20
2022-12-06T02:14:18.847Z,1.20
2022-12-06T02:17:06.413Z,1.20
2022-12-06T02:19:46.680Z,1.20
2022-12-06T02:22:20.869Z,1.20
2022-12-06T02:25:08.753Z,1.20
2022-12-06T02:27:44.189Z,1.20
2022-12-06T02:30:31.991Z,1.20
2022-12-06T02:33:05.551Z,1.20
2022-12-06T02:35:40.171Z,1.20
2022-12-06T02:38:23.422Z,1.30
2022-12-06T02:40:57.532Z,1.30
2022-12-06T02:43:29.093Z,1.30
2022-12-06T02:46:00.727Z,1.30
2022-12-06T02:48:29.355Z,1.30
2022-12-06T02:51:09.809Z,1.20
2022-12-06T02:53:41.059Z,1.30
2022-12-06T02:56:09.942Z,1.30
2022-12-06T02:58:39.298Z,1.30
2022-12-06T03:01:22.964Z,1.30
2022-12-06T03:04:14.986Z,1.30
2022-12-06T03:06:58.547Z,1.30
2022-12-06T03:09:39.023Z,1.30
2022-12-06T03:12:16.255Z,1.30
2022-12-06T03:15:10.772Z,1.40
2022-12-06T03:17:42.339Z,1.30
2022-12-06T03:20:16.639Z,1.40
2022-12-06T03:22:48.169Z,1.40
2022-12-06T03:25:17.846Z,1.40
2022-12-06T03:27:48.034Z,1.50
2022-12-06T03:30:18.113Z,1.40
2022-12-06T03:32:49.427Z,1.40
2022-12-06T03:35:25.041Z,1.50
2022-12-06T03:37:58.986Z,1.50
2022-12-06T03:40:33.463Z,1.50
2022-12-06T03:43:02.062Z,1.50
2022-12-06T03:45:53.391Z,1.50
2022-12-06T03:48:33.841Z,1.60
2022-12-06T03:51:08.045Z,1.60
2022-12-06T03:53:38.066Z,1.60
2022-12-06T03:56:06.817Z,1.60
2022-12-06T03:58:35.328Z,1.60
2022-12-06T04:01:04.935Z,1.70
2022-12-06T04:03:33.561Z,1.70
2022-12-06T04:06:04.107Z,1.70
2022-12-06T04:08:32.987Z,1.70
2022-12-06T04:11:01.420Z,1.70
2022-12-06T04:13:30.831Z,1.70
2022-12-06T04:16:01.563Z,1.70
2022-12-06T04:18:30.227Z,1.70
2022-12-06T04:21:21.162Z,1.70
2022-12-06T04:23:52.462Z,1.80
2022-12-06T04:26:23.121Z,1.80
2022-12-06T04:29:10.658Z,1.70
2022-12-06T04:32:00.089Z,1.70
2022-12-06T04:34:46.643Z,1.70
2022-12-06T04:37:33.370Z,1.70
2022-12-06T04:40:02.260Z,1.70
2022-12-06T04:42:48.911Z,1.70
2022-12-06T04:45:17.568Z,1.70
2022-12-06T04:47:46.223Z,1.70
2022-12-06T04:50:14.907Z,1.70
2022-12-06T04:52:43.391Z,1.70
2022-12-06T04:55:11.910Z,1.70
2022-12-06T04:57:40.363Z,1.70
2022-12-06T05:00:09.808Z,1.80
2022-12-06T05:02:38.319Z,1.70
2022-12-06T05:05:07.405Z,1.80
2022-12-06T05:07:35.981Z,1.80
2022-12-06T05:10:04.796Z,1.80
2022-12-06T05:12:33.328Z,1.80
2022-12-06T05:15:01.908Z,1.80
2022-12-06T05:17:30.546Z,1.80
2022-12-06T05:19:59.320Z,1.80
2022-12-06T05:22:28.093Z,1.80
2022-12-06T05:24:56.618Z,1.80
2022-12-06T05:27:25.207Z,1.80
2022-12-06T05:29:53.710Z,1.80
2022-12-06T05:32:22.238Z,1.80
2022-12-06T05:34:50.782Z,1.90
2022-12-06T05:37:19.618Z,1.90
2022-12-06T05:39:48.380Z,1.90
2022-12-06T05:42:22.580Z,1.90
2022-12-06T05:44:47.888Z,1.90
2022-12-06T05:47:16.402Z,1.90
2022-12-06T05:49:44.962Z,1.90
2022-12-06T05:52:13.491Z,1.90
2022-12-06T05:54:41.954Z,1.90
2022-12-06T05:57:10.430Z,1.90
2022-12-06T05:59:38.881Z,1.90
2022-12-06T06:02:07.910Z,1.90
2022-12-06T06:04:36.515Z,1.90
2022-12-06T06:07:05.297Z,2.00
2022-12-06T06:09:33.880Z,1.90
2022-12-06T06:12:02.376Z,1.90
2022-12-06T06:14:30.959Z,1.90
2022-12-06T06:16:59.605Z,2.00
2022-12-06T06:19:28.067Z,2.00
2022-12-06T06:21:56.587Z,2.00
2022-12-06T06:24:25.040Z,2.00
2022-12-06T06:26:53.503Z,2.10
2022-12-06T06:29:22.117Z,2.10
2022-12-06T06:31:50.779Z,2.10
2022-12-06T06:34:19.325Z,2.10
2022-12-06T06:36:47.796Z,2.10
2022-12-06T06:39:16.665Z,2.20
2022-12-06T06:41:46.217Z,2.20
2022-12-06T06:44:14.924Z,2.20
2022-12-06T06:46:43.360Z,2.20
2022-12-06T06:49:13.269Z,2.20
2022-12-06T06:51:42.107Z,2.30
2022-12-06T06:54:10.841Z,2.30
2022-12-06T06:56:39.895Z,2.30
2022-12-06T06:59:08.357Z,2.30
2022-12-06T07:01:38.228Z,2.30
2022-12-06T07:04:06.777Z,2.30
2022-12-06T07:06:35.364Z,2.30
2022-12-06T07:09:03.922Z,2.30
2022-12-06T07:11:32.396Z,2.30
2022-12-06T07:14:02.536Z,2.30
2022-12-06T07:16:31.497Z,2.40
2022-12-06T07:19:02.422Z,2.30
2022-12-06T07:21:30.391Z,2.30
2022-12-06T07:24:00.993Z,2.40
2022-12-06T07:26:29.964Z,2.40
2022-12-06T07:28:58.863Z,2.40
2022-12-06T07:31:29.780Z,2.50
2022-12-06T07:34:00.791Z,2.50
2022-12-06T07:36:31.793Z,2.50
2022-12-06T07:39:00.976Z,2.50
2022-12-06T07:41:48.540Z,2.50
2022-12-06T07:44:35.482Z,2.50
2022-12-06T07:47:04.587Z,2.60
2022-12-06T07:49:33.175Z,2.50
2022-12-06T07:52:02.153Z,2.50
2022-12-06T07:54:30.701Z,2.60
2022-12-06T07:56:59.293Z,2.60
2022-12-06T07:59:28.285Z,2.60
2022-12-06T08:01:56.856Z,2.60
2022-12-06T08:04:25.388Z,2.60
2022-12-06T08:06:54.138Z,2.60
2022-12-06T08:09:23.057Z,2.60
2022-12-06T08:11:51.644Z,2.70
2022-12-06T08:14:20.190Z,2.70
2022-12-06T08:16:48.738Z,2.70
2022-12-06T08:19:17.231Z,2.70
2022-12-06T08:21:46.150Z,2.80
2022-12-06T08:24:14.672Z,2.80
2022-12-06T08:26:44.618Z,2.80
2022-12-06T08:29:13.148Z,2.80
2022-12-06T08:31:42.422Z,2.80
2022-12-06T08:34:10.957Z,2.80
2022-12-06T08:36:41.133Z,2.90
2022-12-06T08:39:11.671Z,2.90
2022-12-06T08:41:58.436Z,2.90
2022-12-06T08:44:29.250Z,2.90
2022-12-06T08:46:59.664Z,3.00
2022-12-06T08:49:30.323Z,3.00
2022-12-06T08:52:00.444Z,3.00
2022-12-06T08:54:29.651Z,3.00
2022-12-06T08:56:58.525Z,3.00
2022-12-06T08:59:27.027Z,3.10
2022-12-06T09:01:55.569Z,3.10
2022-12-06T09:04:24.297Z,3.10
2022-12-06T09:06:52.850Z,3.10
2022-12-06T09:09:21.631Z,3.20
2022-12-06T09:11:51.286Z,3.20
2022-12-06T09:14:22.355Z,3.20
2022-12-06T09:16:52.675Z,3.20
2022-12-06T09:19:21.440Z,3.20
2022-12-06T09:21:50.054Z,3.20
2022-12-06T09:24:19.898Z,3.20
2022-12-06T09:26:48.548Z,3.20
2022-12-06T09:29:18.180Z,3.20
2022-12-06T09:31:46.908Z,3.20
2022-12-06T09:34:16.883Z,3.30
2022-12-06T09:36:51.699Z,3.30
2022-12-06T09:39:23.264Z,3.30
2022-12-06T09:42:12.448Z,3.30
2022-12-06T09:44:52.702Z,3.50
2022-12-06T09:47:43.128Z,3.40
2022-12-06T09:50:17.443Z,3.50
2022-12-06T09:52:57.865Z,3.50
2022-12-06T09:55:35.172Z,3.50
2022-12-06T09:58:06.908Z,3.50
2022-12-06T10:00:38.446Z,3.60
2022-12-06T10:03:18.981Z,3.60
2022-12-06T10:05:57.879Z,3.70
2022-12-06T10:08:38.424Z,3.70
2022-12-06T10:11:24.570Z,3.80
2022-12-06T10:14:16.515Z,3.80
2022-12-06T10:16:48.006Z,3.70
2022-12-06T10:19:37.770Z,3.70
2022-12-06T10:22:29.465Z,3.80
2022-12-06T10:25:17.596Z,3.80
2022-12-06T10:27:51.710Z,3.80
2022-12-06T10:30:21.085Z,3.80
2022-12-06T10:32:55.520Z,3.80
2022-12-06T10:35:39.094Z,3.90
2022-12-06T10:38:16.382Z,3.90
2022-12-06T10:40:47.922Z,3.80
2022-12-06T10:43:19.498Z,3.90
2022-12-06T10:46:09.522Z,3.90
2022-12-06T10:48:46.871Z,4.00
2022-12-06T10:51:24.447Z,4.00
2022-12-06T10:53:56.448Z,4.00
2022-12-06T10:56:28.249Z,4.00
2022-12-06T10:58:59.792Z,3.90
2022-12-06T11:01:31.409Z,3.90
2022-12-06T11:04:16.517Z,3.90
2022-12-06T11:06:54.369Z,3.90
2022-12-06T11:09:26.799Z,4.00
2022-12-06T11:11:55.479Z,3.90
2022-12-06T11:14:45.468Z,3.80
2022-12-06T11:17:25.872Z,3.80
2022-12-06T11:20:09.506Z,3.90
2022-12-06T11:22:43.748Z,4.00
2022-12-06T11:25:33.161Z,4.00
2022-12-06T11:28:23.864Z,4.00
2022-12-06T11:30:55.476Z,4.10
2022-12-06T11:33:32.681Z,4.10
2022-12-06T11:36:07.064Z,4.10
2022-12-06T11:38:38.648Z,4.30
2022-12-06T11:41:10.166Z,4.30
2022-12-06T11:43:39.559Z,4.40
2022-12-06T11:46:09.859Z,4.40
2022-12-06T11:48:38.632Z,4.50
2022-12-06T11:51:10.165Z,4.70
2022-12-06T11:53:41.769Z,4.70
2022-12-06T11:56:13.351Z,4.50
2022-12-06T11:58:44.868Z,4.60
2022-12-06T12:01:14.579Z,4.60
2022-12-06T12:03:45.455Z,4.60
2022-12-06T12:06:20.075Z,4.60
2022-12-06T12:09:00.447Z,4.60
2022-12-06T12:11:32.046Z,4.70
2022-12-06T12:14:03.243Z,4.80
2022-12-06T12:16:37.528Z,4.90
2022-12-06T12:19:25.604Z,4.70
2022-12-06T12:21:56.420Z,4.80
2022-12-06T12:25:11.159Z,4.80
2022-12-06T12:27:37.891Z,4.90
2022-12-06T12:30:24.721Z,4.60
2022-12-06T12:33:08.011Z,4.50
2022-12-06T12:35:45.643Z,4.40
2022-12-06T12:38:17.212Z,4.40
2022-12-06T12:40:57.963Z,4.40
2022-12-06T12:43:31.952Z,4.40
2022-12-06T12:46:18.017Z,4.50
2022-12-06T12:48:49.229Z,4.60
2022-12-06T12:51:23.709Z,4.50
2022-12-06T12:53:58.484Z,4.40
2022-12-06T12:56:27.222Z,4.40
2022-12-06T12:58:57.553Z,4.40
2022-12-06T13:01:29.258Z,4.30
2022-12-06T13:04:10.083Z,4.40
2022-12-06T13:06:56.878Z,4.40
2022-12-06T13:09:31.416Z,4.40
2022-12-06T13:12:02.980Z,4.50
2022-12-06T13:14:33.465Z,4.50
2022-12-06T13:17:05.116Z,4.50
2022-12-06T13:19:42.762Z,4.50
2022-12-06T13:22:32.319Z,4.60
2022-12-06T13:25:03.888Z,4.50
2022-12-06T13:27:47.310Z,4.40
2022-12-06T13:30:21.451Z,4.50
2022-12-06T13:33:04.972Z,4.80
2022-12-06T13:35:40.078Z,4.90
2022-12-06T13:38:26.671Z,4.90
2022-12-06T13:40:56.126Z,5.10
2022-12-06T13:43:27.843Z,4.90
2022-12-06T13:46:12.350Z,4.70
2022-12-06T13:48:52.426Z,4.70
2022-12-06T13:51:37.739Z,4.50
2022-12-06T13:54:15.616Z,4.40
2022-12-06T13:56:44.210Z,4.30
2022-12-06T13:59:15.827Z,4.20
2022-12-06T14:01:50.221Z,4.20
2022-12-06T14:09:43.828Z,4.20
2022-12-06T14:12:19.309Z,4.20
2022-12-06T14:15:00.941Z,4.10
2022-12-06T14:20:24.382Z,4.20
2022-12-06T14:22:52.966Z,4.10
2022-12-06T14:25:24.173Z,4.10
2022-12-06T14:27:55.514Z,4.10
2022-12-06T14:30:26.653Z,4.10
2022-12-06T14:32:57.988Z,4.10
2022-12-06T14:35:33.760Z,4.10
2022-12-06T14:38:06.530Z,4.10
2022-12-06T14:41:01.266Z,4.10
2022-12-06T14:43:32.258Z,4.00
2022-12-06T14:46:03.560Z,4.00
2022-12-06T14:48:34.936Z,4.00
2022-12-06T14:51:03.654Z,3.90
2022-12-06T14:53:34.603Z,3.70
2022-12-06T14:56:08.109Z,3.60
2022-12-06T14:58:39.608Z,3.50
2022-12-06T15:01:16.811Z,3.40
2022-12-06T15:03:46.086Z,3.30
2022-12-06T15:06:23.220Z,3.30
2022-12-06T15:09:03.605Z,3.20
2022-12-06T15:11:54.747Z,3.10
2022-12-06T15:14:26.238Z,3.10
2022-12-06T15:17:06.566Z,2.90
2022-12-06T15:19:53.347Z,3.00
2022-12-06T15:22:25.475Z,3.10
2022-12-06T15:24:57.370Z,3.20
2022-12-06T15:27:31.041Z,3.20
2022-12-06T15:29:59.934Z,3.30
2022-12-06T15:32:28.750Z,3.30
2022-12-06T15:34:57.289Z,3.30
2022-12-06T15:37:44.921Z,3.30
2022-12-06T15:39:56.046Z,3.40
2022-12-06T15:42:25.244Z,3.40
2022-12-06T15:44:53.782Z,3.40
2022-12-06T15:47:22.418Z,3.40
2022-12-06T15:49:52.507Z,3.50
2022-12-06T15:52:27.015Z,3.50
2022-12-06T15:54:55.616Z,3.50
2022-12-06T15:57:24.139Z,3.60
2022-12-06T15:59:52.605Z,3.50
2022-12-06T16:02:21.336Z,3.50
2022-12-06T16:04:51.782Z,3.50
2022-12-06T16:07:20.464Z,3.40
2022-12-06T16:09:49.352Z,3.40
2022-12-06T16:12:18.273Z,3.40
2022-12-06T16:14:46.800Z,3.40
2022-12-06T16:17:15.319Z,3.40
2022-12-06T16:20:01.623Z,3.40
2022-12-06T16:22:47.960Z,3.40
2022-12-06T16:25:16.418Z,3.40
2022-12-06T16:27:44.860Z,3.40
2022-12-06T16:30:14.592Z,3.40
2022-12-06T16:32:43.153Z,3.40
2022-12-06T16:35:11.691Z,3.30
2022-12-06T16:37:40.392Z,3.30
2022-12-06T16:40:13.168Z,3.30
2022-12-06T16:42:41.649Z,3.30
2022-12-06T16:45:10.613Z,3.30
2022-12-06T16:47:39.234Z,3.20
2022-12-06T16:50:09.885Z,3.20
2022-12-06T16:52:38.407Z,3.20
2022-12-06T16:55:07.184Z,3.20
2022-12-06T16:57:35.646Z,3.10
2022-12-06T17:00:06.261Z,3.10
2022-12-06T17:02:34.826Z,3.20
2022-12-06T17:05:07.453Z,3.20
2022-12-06T17:07:38.950Z,3.20
2022-12-06T17:10:08.543Z,3.20
2022-12-06T17:12:37.174Z,3.20
2022-12-06T17:15:07.317Z,3.20
2022-12-06T17:17:35.817Z,3.30
2022-12-06T17:20:04.514Z,3.20
2022-12-06T17:22:34.224Z,3.20
2022-12-06T17:25:03.170Z,3.20
2022-12-06T17:27:31.946Z,3.20
2022-12-06T17:30:00.530Z,3.20
2022-12-06T17:32:30.096Z,3.20
2022-12-06T17:34:58.739Z,3.30
2022-12-06T17:37:27.401Z,3.30
2022-12-06T17:39:56.100Z,3.30
2022-12-06T17:42:42.391Z,3.30
2022-12-06T17:45:11.940Z,3.30
2022-12-06T17:47:41.989Z,3.40
2022-12-06T17:50:11.326Z,3.40
2022-12-06T17:52:39.895Z,3.40
2022-12-06T17:55:09.949Z,3.40
2022-12-06T17:57:38.520Z,3.50
2022-12-06T18:00:08.421Z,3.50
2022-12-06T18:02:38.641Z,3.50
2022-12-06T18:05:07.641Z,3.50
2022-12-06T18:07:36.239Z,3.50
2022-12-06T18:10:05.245Z,3.50
2022-12-06T18:12:35.159Z,3.60
2022-12-06T18:15:04.243Z,3.60
2022-12-06T18:17:33.040Z,3.60
2022-12-06T18:20:01.552Z,3.60
2022-12-06T18:22:30.855Z,3.60
2022-12-06T18:24:59.733Z,3.70
2022-12-06T18:27:28.419Z,3.70
2022-12-06T18:29:56.904Z,3.70
2022-12-06T18:32:25.427Z,3.70
2022-12-06T18:34:54.022Z,3.70
2022-12-06T18:37:22.578Z,3.70
2022-12-06T18:39:51.040Z,3.70
2022-12-06T18:42:19.547Z,3.80
2022-12-06T18:44:48.008Z,3.80
2022-12-06T18:47:16.508Z,3.80
2022-12-06T18:49:45.011Z,3.80
2022-12-06T18:52:13.522Z,3.80
2022-12-06T18:54:42.006Z,3.80
2022-12-06T18:57:10.501Z,3.80
2022-12-06T18:59:39.030Z,3.90
2022-12-06T19:02:07.579Z,3.90
2022-12-06T19:04:36.124Z,3.90
2022-12-06T19:07:04.651Z,3.80
2022-12-06T19:09:33.106Z,3.80
2022-12-06T19:12:02.935Z,3.80
2022-12-06T19:14:32.699Z,3.80
2022-12-06T19:17:01.266Z,3.70
2022-12-06T19:19:29.983Z,3.80
2022-12-06T19:21:58.638Z,3.80
2022-12-06T19:24:28.499Z,3.80
2022-12-06T19:27:00.622Z,3.80
2022-12-06T19:29:29.699Z,3.80
2022-12-06T19:31:58.288Z,3.70
2022-12-06T19:34:27.896Z,3.70
2022-12-06T19:36:57.677Z,3.80
2022-12-06T19:39:26.929Z,3.70
2022-12-06T19:42:13.583Z,3.70
2022-12-06T19:44:42.264Z,3.80
2022-12-06T19:47:14.181Z,3.80
2022-12-06T19:49:42.827Z,3.80
2022-12-06T19:52:12.061Z,3.80
2022-12-06T19:54:41.665Z,3.80
2022-12-06T19:57:10.288Z,3.80
2022-12-06T19:59:39.346Z,3.90
2022-12-06T20:02:10.165Z,3.90
2022-12-06T20:04:40.754Z,3.90
2022-12-06T20:07:09.868Z,3.90
2022-12-06T20:09:39.164Z,4.00
2022-12-06T20:12:08.012Z,3.90
2022-12-06T20:14:39.374Z,3.90
2022-12-06T20:17:16.746Z,3.90
2022-12-06T20:19:51.842Z,4.00
2022-12-06T20:22:22.656Z,3.90
2022-12-06T20:24:51.366Z,4.00
2022-12-06T20:27:22.094Z,3.90
2022-12-06T20:29:50.609Z,3.90
2022-12-06T20:32:19.125Z,3.90
2022-12-06T20:34:47.776Z,4.00
2022-12-06T20:37:16.216Z,3.90
2022-12-06T20:39:44.685Z,3.90
2022-12-06T20:42:13.139Z,3.90
2022-12-06T20:44:41.664Z,3.90
2022-12-06T20:47:10.237Z,3.90
2022-12-06T20:49:38.800Z,3.90
2022-12-06T20:52:07.405Z,3.90
2022-12-06T20:54:36.013Z,3.90
2022-12-06T20:57:06.439Z,3.90
2022-12-06T20:59:36.739Z,3.90
2022-12-06T21:02:06.555Z,4.00
2022-12-06T21:04:35.384Z,4.00
2022-12-06T21:07:03.985Z,4.00
2022-12-06T21:09:32.623Z,4.00
2022-12-06T21:12:01.192Z,3.90
2022-12-06T21:14:29.864Z,4.00
2022-12-06T21:16:58.509Z,3.90
2022-12-06T21:19:27.098Z,4.00
2022-12-06T21:21:57.257Z,4.00
2022-12-06T21:24:25.876Z,3.90
2022-12-06T21:26:54.572Z,3.90
2022-12-06T21:29:30.396Z,4.00
2022-12-06T21:31:55.322Z,4.00
2022-12-06T21:34:23.874Z,4.00
2022-12-06T21:36:52.374Z,4.10
2022-12-06T21:39:22.512Z,4.10
2022-12-06T21:41:51.336Z,4.10
2022-12-06T21:44:20.092Z,4.10
2022-12-06T21:46:53.564Z,4.20
2022-12-06T21:49:22.180Z,4.10
2022-12-06T21:51:58.470Z,4.10
2022-12-06T21:54:24.044Z,4.10
2022-12-06T21:56:52.676Z,4.10
2022-12-06T21:59:21.469Z,4.20
2022-12-06T22:01:51.461Z,4.20
2022-12-06T22:04:20.080Z,4.20
2022-12-06T22:06:48.655Z,4.20
2022-12-06T22:09:17.130Z,4.20
2022-12-06T22:11:45.815Z,4.20
2022-12-06T22:14:14.296Z,4.20
2022-12-06T22:16:42.792Z,4.30
2022-12-06T22:19:12.060Z,4.30
2022-12-06T22:21:40.683Z,4.30
2022-12-06T22:24:09.655Z,4.30
2022-12-06T22:26:38.094Z,4.30
2022-12-06T22:29:06.720Z,4.30
2022-12-06T22:31:35.994Z,4.30
2022-12-06T22:34:04.756Z,4.30
2022-12-06T22:36:34.434Z,4.30
2022-12-06T22:39:05.052Z,4.30
2022-12-06T22:41:34.255Z,4.30
2022-12-06T22:44:05.002Z,4.30
2022-12-06T22:46:34.844Z,4.30
2022-12-06T22:49:03.947Z,4.30
2022-12-06T22:51:35.210Z,4.30
2022-12-06T22:54:06.560Z,4.30
2022-12-06T22:56:35.403Z,4.30
2022-12-06T22:59:04.288Z,4.30
2022-12-06T23:01:35.064Z,4.30
2022-12-06T23:04:06.823Z,4.30
2022-12-06T23:06:37.180Z,4.30
2022-12-06T23:09:07.513Z,4.30
2022-12-06T23:11:37.539Z,4.30
2022-12-06T23:14:07.933Z,4.30
2022-12-06T23:16:36.677Z,4.30
2022-12-06T23:19:05.755Z,4.40
2022-12-06T23:21:36.612Z,4.40
2022-12-06T23:24:08.159Z,4.40
2022-12-06T23:26:45.528Z,4.40
2022-12-06T23:29:15.579Z,4.40
2022-12-06T23:31:46.262Z,4.40
2022-12-06T23:34:25.309Z,4.40
2022-12-06T23:36:54.168Z,4.40
2022-12-06T23:39:22.600Z,4.40
2022-12-06T23:41:51.030Z,4.40
2022-12-06T23:44:19.621Z,4.40
2022-12-06T23:46:48.149Z,4.40
2022-12-06T23:49:19.523Z,4.40
2022-12-06T23:51:48.523Z,4.50
2022-12-06T23:54:18.198Z,4.50
2022-12-06T23:56:46.872Z,4.40
2022-12-06T23:59:16.488Z,4.50
